createdAt,value
2022-09-23T00:00:23.135Z,21.84
2022-09-23T00:01:23.279Z,21.84
2022-09-23T00:02:23.262Z,21.65
2022-09-23T00:03:23.135Z,21.75
2022-09-23T00:04:23.135Z,21.65
2022-09-23T00:05:23.135Z,21.65
2022-09-23T00:06:23.156Z,21.45
2022-09-23T00:07:23.133Z,21.65
2022-09-23T00:08:23.136Z,21.45
2022-09-23T00:09:23.136Z,21.55
2022-09-23T00:10:23.136Z,21.55
2022-09-23T00:11:23.138Z,21.84
2022-09-23T00:12:23.136Z,21.65
2022-09-23T00:13:23.137Z,21.55
2022-09-23T00:14:23.135Z,21.55
2022-09-23T00:15:23.134Z,21.45
2022-09-23T00:16:23.195Z,21.65
2022-09-23T00:17:23.136Z,21.65
2022-09-23T00:18:23.136Z,21.55
2022-09-23T00:19:23.136Z,21.55
2022-09-23T00:20:23.136Z,21.36
2022-09-23T00:21:23.138Z,21.45
2022-09-23T00:22:23.160Z,21.65
2022-09-23T00:23:23.136Z,21.36
2022-09-23T00:24:23.139Z,21.65
2022-09-23T00:25:23.136Z,21.55
2022-09-23T00:26:23.146Z,21.55
2022-09-23T00:27:23.137Z,21.55
2022-09-23T00:28:23.137Z,21.45
2022-09-23T00:29:23.139Z,21.45
2022-09-23T00:30:23.181Z,21.45
2022-09-23T00:31:23.199Z,21.36
2022-09-23T00:32:23.143Z,21.55
2022-09-23T00:33:23.138Z,21.36
2022-09-23T00:34:23.137Z,21.55
2022-09-23T00:35:23.138Z,21.36
2022-09-23T00:36:23.142Z,21.55
2022-09-23T00:37:23.138Z,21.55
2022-09-23T00:38:23.231Z,21.55
2022-09-23T00:39:23.137Z,21.55
2022-09-23T00:40:23.250Z,21.45
2022-09-23T00:41:23.137Z,21.65
2022-09-23T00:42:23.139Z,21.45
2022-09-23T00:43:23.138Z,21.36
2022-09-23T00:44:23.139Z,21.75
2022-09-23T00:45:23.138Z,21.65
2022-09-23T00:46:23.201Z,21.65
2022-09-23T00:47:23.144Z,21.55
2022-09-23T00:48:23.143Z,21.36
2022-09-23T00:49:23.138Z,21.36
2022-09-23T00:50:23.139Z,21.36
2022-09-23T00:51:23.140Z,21.36
2022-09-23T00:52:23.140Z,21.45
2022-09-23T00:53:23.145Z,21.36
2022-09-23T00:54:23.160Z,21.36
2022-09-23T00:55:23.153Z,21.36
2022-09-23T00:56:23.139Z,21.45
2022-09-23T00:57:23.139Z,21.36
2022-09-23T00:58:23.139Z,21.45
2022-09-23T00:59:23.140Z,21.45
2022-09-23T01:00:23.140Z,21.45
2022-09-23T01:01:23.203Z,21.36
2022-09-23T01:02:23.219Z,21.36
2022-09-23T01:03:23.143Z,21.36
2022-09-23T01:04:23.138Z,21.45
2022-09-23T01:05:23.143Z,21.55
2022-09-23T01:06:23.140Z,21.26
2022-09-23T01:07:23.140Z,21.45
2022-09-23T01:08:23.142Z,21.45
2022-09-23T01:09:23.142Z,21.45
2022-09-23T01:10:23.162Z,21.45
2022-09-23T01:11:23.146Z,21.45
2022-09-23T01:12:23.141Z,21.45
2022-09-23T01:13:23.145Z,21.36
2022-09-23T01:14:23.140Z,21.16
2022-09-23T01:15:23.148Z,21.36
2022-09-23T01:16:23.298Z,21.65
2022-09-23T01:17:23.142Z,21.16
2022-09-23T01:18:23.140Z,21.36
2022-09-23T01:19:23.141Z,21.65
2022-09-23T01:20:23.140Z,21.55
2022-09-23T01:21:23.143Z,21.55
2022-09-23T01:22:23.141Z,20.97
2022-09-23T01:23:23.141Z,21.45
2022-09-23T01:24:23.141Z,21.55
2022-09-23T01:25:23.143Z,21.06
2022-09-23T01:26:23.164Z,21.06
2022-09-23T01:27:23.141Z,21.45
2022-09-23T01:28:23.142Z,21.06
2022-09-23T01:29:23.145Z,21.06
2022-09-23T01:30:23.141Z,21.26
2022-09-23T01:31:23.270Z,21.26
2022-09-23T01:32:23.142Z,21.16
2022-09-23T01:33:23.144Z,21.06
2022-09-23T01:34:23.141Z,21.06
2022-09-23T01:35:23.143Z,21.36
2022-09-23T01:36:23.141Z,21.16
2022-09-23T01:37:23.143Z,21.16
2022-09-23T01:38:23.144Z,21.06
2022-09-23T01:39:23.142Z,21.16
2022-09-23T01:40:23.195Z,21.16
2022-09-23T01:41:23.144Z,21.16
2022-09-23T01:42:23.165Z,21.06
2022-09-23T01:43:23.143Z,21.16
2022-09-23T01:44:23.145Z,21.16
2022-09-23T01:45:23.143Z,21.45
2022-09-23T01:46:23.143Z,21.26
2022-09-23T01:47:23.145Z,21.36
2022-09-23T01:48:23.214Z,21.26
2022-09-23T01:49:23.143Z,21.45
2022-09-23T01:50:23.142Z,21.45
2022-09-23T01:51:23.144Z,21.26
2022-09-23T01:52:23.143Z,21.45
2022-09-23T01:53:23.144Z,21.26
2022-09-23T01:54:23.143Z,21.26
2022-09-23T01:55:23.143Z,21.16
2022-09-23T01:56:23.147Z,21.16
2022-09-23T01:57:23.144Z,21.16
2022-09-23T01:58:23.164Z,21.55
2022-09-23T01:59:23.144Z,21.36
2022-09-23T02:00:23.143Z,21.06
2022-09-23T02:01:23.177Z,21.36
2022-09-23T02:02:23.218Z,21.06
2022-09-23T02:03:23.146Z,21.45
2022-09-23T02:04:23.146Z,21.45
2022-09-23T02:05:23.144Z,21.16
2022-09-23T02:06:23.144Z,20.97
2022-09-23T02:07:23.146Z,21.06
2022-09-23T02:08:23.143Z,21.06
2022-09-23T02:09:23.146Z,20.97
2022-09-23T02:10:23.143Z,21.16
2022-09-23T02:11:23.144Z,21.16
2022-09-23T02:12:23.144Z,21.16
2022-09-23T02:13:23.147Z,21.16
2022-09-23T02:14:23.166Z,21.16
2022-09-23T02:15:23.147Z,21.16
2022-09-23T02:16:23.186Z,21.06
2022-09-23T02:17:23.145Z,21.06
2022-09-23T02:18:23.144Z,21.36
2022-09-23T02:19:23.146Z,21.26
2022-09-23T02:20:23.144Z,21.16
2022-09-23T02:21:23.146Z,21.36
2022-09-23T02:22:23.143Z,21.26
2022-09-23T02:23:23.145Z,21.16
2022-09-23T02:24:23.147Z,21.26
2022-09-23T02:25:23.147Z,21.26
2022-09-23T02:26:23.146Z,21.16
2022-09-23T02:27:23.149Z,21.26
2022-09-23T02:28:23.146Z,21.26
2022-09-23T02:29:23.147Z,21.26
2022-09-23T02:30:23.313Z,21.36
2022-09-23T02:31:23.186Z,21.26
2022-09-23T02:32:23.145Z,21.26
2022-09-23T02:33:23.146Z,21.36
2022-09-23T02:34:23.146Z,21.26
2022-09-23T02:35:23.146Z,21.06
2022-09-23T02:36:23.147Z,21.26
2022-09-23T02:37:23.296Z,21.06
2022-09-23T02:38:23.147Z,21.16
2022-09-23T02:39:23.146Z,21.26
2022-09-23T02:40:23.194Z,21.06
2022-09-23T02:41:23.148Z,21.16
2022-09-23T02:42:23.145Z,21.16
2022-09-23T02:43:23.148Z,21.16
2022-09-23T02:44:23.147Z,21.16
2022-09-23T02:45:23.147Z,21.16
2022-09-23T02:46:23.322Z,21.16
2022-09-23T02:47:23.147Z,21.16
2022-09-23T02:48:23.145Z,21.06
2022-09-23T02:49:23.147Z,20.97
2022-09-23T02:50:23.146Z,21.06
2022-09-23T02:51:23.148Z,21.06
2022-09-23T02:52:23.147Z,21.16
2022-09-23T02:53:23.151Z,20.97
2022-09-23T02:54:23.146Z,20.97
2022-09-23T02:55:23.147Z,21.06
2022-09-23T02:56:23.148Z,20.87
2022-09-23T02:57:23.149Z,20.87
2022-09-23T02:58:23.146Z,21.06
2022-09-23T02:59:23.148Z,20.97
2022-09-23T03:00:23.146Z,21.06
2022-09-23T03:01:23.225Z,20.97
2022-09-23T03:02:23.225Z,20.87
2022-09-23T03:03:23.148Z,20.87
2022-09-23T03:04:23.147Z,20.87
2022-09-23T03:05:23.149Z,20.87
2022-09-23T03:06:23.145Z,20.77
2022-09-23T03:07:23.147Z,20.87
2022-09-23T03:08:23.147Z,21.06
2022-09-23T03:09:23.148Z,20.87
2022-09-23T03:10:23.147Z,20.97
2022-09-23T03:11:23.148Z,21.06
2022-09-23T03:12:23.148Z,21.26
2022-09-23T03:13:27.387Z,20.97
2022-09-23T03:14:23.147Z,20.97
2022-09-23T03:15:23.157Z,20.97
2022-09-23T03:16:23.194Z,20.97
2022-09-23T03:17:23.151Z,20.87
2022-09-23T03:18:23.172Z,20.97
2022-09-23T03:19:23.148Z,20.97
2022-09-23T03:20:23.149Z,20.97
2022-09-23T03:21:23.149Z,20.97
2022-09-23T03:22:23.148Z,20.87
2022-09-23T03:23:23.150Z,20.97
2022-09-23T03:24:23.148Z,20.97
2022-09-23T03:25:23.148Z,20.97
2022-09-23T03:26:23.148Z,20.87
2022-09-23T03:27:23.149Z,20.97
2022-09-23T03:28:23.152Z,20.77
2022-09-23T03:29:23.149Z,20.97
2022-09-23T03:30:23.146Z,20.97
2022-09-23T03:31:23.232Z,20.77
2022-09-23T03:32:23.151Z,20.77
2022-09-23T03:33:26.748Z,20.58
2022-09-23T03:34:23.170Z,20.87
2022-09-23T03:35:23.149Z,20.87
2022-09-23T03:36:23.147Z,20.68
2022-09-23T03:37:23.150Z,20.87
2022-09-23T03:38:23.148Z,20.77
2022-09-23T03:39:23.149Z,20.77
2022-09-23T03:40:23.218Z,20.68
2022-09-23T03:41:23.149Z,20.87
2022-09-23T03:42:23.151Z,20.68
2022-09-23T03:43:23.149Z,20.77
2022-09-23T03:44:23.148Z,20.87
2022-09-23T03:45:23.211Z,20.68
2022-09-23T03:46:23.148Z,20.68
2022-09-23T03:47:23.150Z,20.68
2022-09-23T03:48:23.149Z,20.68
2022-09-23T03:49:23.151Z,20.77
2022-09-23T03:50:23.174Z,20.77
2022-09-23T03:51:23.150Z,20.77
2022-09-23T03:52:23.150Z,20.77
2022-09-23T03:53:23.151Z,20.87
2022-09-23T03:54:23.148Z,20.87
2022-09-23T03:55:23.152Z,20.77
2022-09-23T03:56:23.148Z,20.77
2022-09-23T03:57:23.149Z,20.87
2022-09-23T03:58:23.149Z,21.16
2022-09-23T03:59:23.150Z,21.16
2022-09-23T04:00:23.149Z,20.48
2022-09-23T04:01:23.211Z,20.48
2022-09-23T04:02:23.230Z,20.48
2022-09-23T04:03:23.150Z,20.48
2022-09-23T04:04:23.149Z,20.48
2022-09-23T04:05:23.151Z,20.48
2022-09-23T04:06:23.198Z,20.48
2022-09-23T04:07:23.150Z,20.58
2022-09-23T04:08:23.149Z,20.48
2022-09-23T04:09:23.150Z,20.87
2022-09-23T04:10:23.149Z,20.87
2022-09-23T04:11:23.150Z,20.58
2022-09-23T04:12:23.156Z,20.58
2022-09-23T04:13:23.150Z,20.87
2022-09-23T04:14:23.150Z,20.77
2022-09-23T04:15:23.152Z,20.77
2022-09-23T04:16:23.215Z,20.68
2022-09-23T04:17:23.151Z,20.68
2022-09-23T04:18:23.151Z,20.58
2022-09-23T04:19:23.150Z,20.68
2022-09-23T04:20:23.150Z,20.58
2022-09-23T04:21:23.152Z,20.68
2022-09-23T04:22:23.174Z,20.68
2022-09-23T04:23:23.151Z,20.68
2022-09-23T04:24:23.150Z,20.68
2022-09-23T04:25:23.152Z,20.58
2022-09-23T04:26:23.150Z,20.58
2022-09-23T04:27:23.150Z,20.58
2022-09-23T04:28:23.149Z,20.87
2022-09-23T04:29:23.152Z,20.97
2022-09-23T04:30:23.150Z,20.87
2022-09-23T04:31:23.192Z,20.97
2022-09-23T04:32:23.151Z,20.77
2022-09-23T04:33:23.151Z,20.58
2022-09-23T04:34:23.149Z,20.97
2022-09-23T04:35:23.151Z,20.48
2022-09-23T04:36:23.152Z,20.68
2022-09-23T04:37:23.151Z,20.87
2022-09-23T04:38:23.172Z,20.87
2022-09-23T04:39:23.152Z,20.48
2022-09-23T04:40:23.186Z,20.77
2022-09-23T04:41:23.154Z,20.77
2022-09-23T04:42:23.150Z,20.87
2022-09-23T04:43:23.152Z,20.48
2022-09-23T04:44:23.151Z,20.68
2022-09-23T04:45:23.152Z,20.87
2022-09-23T04:46:23.179Z,20.87
2022-09-23T04:47:23.151Z,20.68
2022-09-23T04:48:23.152Z,20.77
2022-09-23T04:49:23.153Z,20.87
2022-09-23T04:50:23.151Z,20.48
2022-09-23T04:51:23.152Z,20.77
2022-09-23T04:52:23.152Z,20.77
2022-09-23T04:53:23.152Z,20.77
2022-09-23T04:54:23.172Z,20.68
2022-09-23T04:55:23.153Z,20.97
2022-09-23T04:56:23.150Z,20.87
2022-09-23T04:57:23.154Z,20.77
2022-09-23T04:58:23.150Z,20.68
2022-09-23T04:59:23.152Z,20.77
2022-09-23T05:00:23.152Z,20.97
2022-09-23T05:01:23.291Z,20.87
2022-09-23T05:02:23.219Z,20.77
2022-09-23T05:03:23.153Z,20.86
2022-09-23T05:04:23.158Z,20.97
2022-09-23T05:05:23.153Z,20.68
2022-09-23T05:06:23.152Z,20.77
2022-09-23T05:07:23.153Z,20.97
2022-09-23T05:08:23.152Z,20.97
2022-09-23T05:09:23.153Z,20.87
2022-09-23T05:10:23.174Z,20.87
2022-09-23T05:11:23.152Z,20.68
2022-09-23T05:12:23.153Z,20.97
2022-09-23T05:13:23.153Z,20.97
2022-09-23T05:14:23.152Z,20.68
2022-09-23T05:15:23.152Z,20.97
2022-09-23T05:16:23.254Z,20.97
2022-09-23T05:17:23.167Z,20.87
2022-09-23T05:18:23.153Z,20.97
2022-09-23T05:19:23.153Z,20.77
2022-09-23T05:20:23.157Z,20.97
2022-09-23T05:21:23.154Z,20.68
2022-09-23T05:22:23.155Z,20.68
2022-09-23T05:23:23.153Z,20.68
2022-09-23T05:24:23.153Z,20.68
2022-09-23T05:25:23.152Z,20.68
2022-09-23T05:26:23.173Z,20.77
2022-09-23T05:27:23.153Z,20.87
2022-09-23T05:28:23.153Z,20.97
2022-09-23T05:29:23.153Z,20.68
2022-09-23T05:30:23.152Z,20.77
2022-09-23T05:31:23.190Z,20.87
2022-09-23T05:32:23.153Z,20.77
2022-09-23T05:33:23.152Z,20.87
2022-09-23T05:34:23.152Z,20.68
2022-09-23T05:35:23.151Z,20.68
2022-09-23T05:36:23.166Z,20.87
2022-09-23T05:37:23.154Z,20.87
2022-09-23T05:38:23.157Z,20.87
2022-09-23T05:39:23.152Z,20.48
2022-09-23T05:40:23.233Z,20.77
2022-09-23T05:41:23.356Z,20.77
2022-09-23T05:42:23.176Z,20.97
2022-09-23T05:43:23.153Z,20.77
2022-09-23T05:44:23.154Z,20.97
2022-09-23T05:45:23.153Z,20.77
2022-09-23T05:46:23.348Z,20.77
2022-09-23T05:47:23.157Z,20.77
2022-09-23T05:48:23.154Z,20.87
2022-09-23T05:49:37.705Z,20.39
2022-09-23T05:50:23.154Z,20.58
2022-09-23T05:51:25.527Z,20.87
2022-09-23T05:52:23.154Z,20.48
2022-09-23T05:53:23.155Z,20.48
2022-09-23T05:54:23.153Z,20.77
2022-09-23T05:55:23.158Z,20.48
2022-09-23T05:56:23.156Z,20.58
2022-09-23T05:57:23.155Z,20.48
2022-09-23T05:58:23.185Z,20.48
2022-09-23T05:59:23.154Z,20.97
2022-09-23T06:00:23.154Z,20.87
2022-09-23T06:01:23.209Z,20.48
2022-09-23T06:02:23.243Z,20.48
2022-09-23T06:03:23.234Z,20.97
2022-09-23T06:04:23.156Z,20.77
2022-09-23T06:05:23.153Z,20.48
2022-09-23T06:06:23.154Z,20.87
2022-09-23T06:07:23.153Z,20.77
2022-09-23T06:08:23.174Z,20.77
2022-09-23T06:09:23.155Z,20.68
2022-09-23T06:10:23.154Z,20.58
2022-09-23T06:11:23.155Z,20.68
2022-09-23T06:12:23.154Z,20.68
2022-09-23T06:13:23.153Z,20.68
2022-09-23T06:14:23.183Z,20.68
2022-09-23T06:15:23.154Z,20.68
2022-09-23T06:16:23.246Z,20.68
2022-09-23T06:17:23.154Z,20.68
2022-09-23T06:18:23.154Z,20.68
2022-09-23T06:19:23.155Z,20.58
2022-09-23T06:20:23.155Z,20.58
2022-09-23T06:21:23.153Z,20.87
2022-09-23T06:22:23.154Z,20.57
2022-09-23T06:23:26.134Z,20.58
2022-09-23T06:24:28.586Z,20.77
2022-09-23T06:25:23.155Z,20.68
2022-09-23T06:26:23.154Z,20.68
2022-09-23T06:27:23.156Z,20.68
2022-09-23T06:28:23.155Z,20.58
2022-09-23T06:29:23.156Z,20.68
2022-09-23T06:30:23.181Z,20.68
2022-09-23T06:31:23.209Z,20.58
2022-09-23T06:32:23.159Z,20.68
2022-09-23T06:33:35.070Z,20.58
2022-09-23T06:34:23.156Z,20.68
2022-09-23T06:35:27.481Z,20.67
2022-09-23T06:36:37.517Z,21.26
2022-09-23T06:37:23.154Z,21.06
2022-09-23T06:38:23.154Z,20.77
2022-09-23T06:39:23.154Z,20.48
2022-09-23T06:40:23.191Z,20.48
2022-09-23T06:41:23.155Z,20.97
2022-09-23T06:42:23.154Z,20.87
2022-09-23T06:43:23.153Z,20.77
2022-09-23T06:44:23.155Z,20.77
2022-09-23T06:45:23.157Z,20.68
2022-09-23T06:46:23.247Z,20.97
2022-09-23T06:47:23.155Z,20.97
2022-09-23T06:48:23.156Z,20.87
2022-09-23T06:49:23.155Z,20.77
2022-09-23T06:50:23.155Z,20.48
2022-09-23T06:51:23.154Z,20.48
2022-09-23T06:52:23.159Z,20.87
2022-09-23T06:53:23.155Z,20.68
2022-09-23T06:54:23.156Z,20.68
2022-09-23T06:55:23.154Z,20.68
2022-09-23T06:56:23.155Z,20.68
2022-09-23T06:57:23.156Z,20.77
2022-09-23T06:58:23.154Z,20.68
2022-09-23T06:59:23.155Z,20.68
2022-09-23T07:00:23.156Z,20.68
2022-09-23T07:01:23.203Z,20.68
2022-09-23T07:02:23.378Z,20.68
2022-09-23T07:03:23.155Z,20.68
2022-09-23T07:04:27.276Z,20.68
2022-09-23T07:05:23.156Z,20.77
2022-09-23T07:06:23.156Z,20.87
2022-09-23T07:07:23.155Z,20.48
2022-09-23T07:08:23.158Z,20.58
2022-09-23T07:09:23.156Z,20.48
2022-09-23T07:10:23.157Z,20.48
2022-09-23T07:11:23.155Z,20.48
2022-09-23T07:12:23.158Z,21.16
2022-09-23T07:13:23.159Z,20.87
2022-09-23T07:14:23.157Z,20.87
2022-09-23T07:15:23.156Z,20.77
2022-09-23T07:16:23.235Z,20.77
2022-09-23T07:17:23.157Z,20.87
2022-09-23T07:18:23.182Z,20.77
2022-09-23T07:19:23.156Z,20.87
2022-09-23T07:20:23.171Z,20.77
2022-09-23T07:21:23.157Z,20.87
2022-09-23T07:22:23.157Z,20.68
2022-09-23T07:23:23.159Z,20.77
2022-09-23T07:24:23.159Z,20.68
2022-09-23T07:25:23.177Z,20.68
2022-09-23T07:26:23.158Z,20.77
2022-09-23T07:27:23.160Z,20.87
2022-09-23T07:28:23.159Z,20.87
2022-09-23T07:29:23.159Z,20.97
2022-09-23T07:30:25.547Z,20.77
2022-09-23T07:31:35.948Z,20.77
2022-09-23T07:32:23.250Z,21.06
2022-09-23T07:33:31.588Z,20.87
2022-09-23T07:34:23.181Z,20.68
2022-09-23T07:35:23.161Z,20.97
2022-09-23T07:36:23.160Z,20.97
2022-09-23T07:37:23.309Z,20.87
2022-09-23T07:38:23.161Z,20.87
2022-09-23T07:39:23.162Z,21.06
2022-09-23T07:40:23.199Z,21.65
2022-09-23T07:41:23.161Z,21.06
2022-09-23T07:42:23.163Z,21.16
2022-09-23T07:43:23.160Z,21.06
2022-09-23T07:44:23.162Z,21.06
2022-09-23T07:45:23.162Z,21.26
2022-09-23T07:46:23.182Z,21.27
2022-09-23T07:47:23.160Z,21.27
2022-09-23T07:48:23.161Z,21.27
2022-09-23T07:49:23.166Z,21.36
2022-09-23T07:50:23.227Z,21.26
2022-09-23T07:51:23.161Z,21.26
2022-09-23T07:52:23.162Z,21.36
2022-09-23T07:53:23.162Z,21.26
2022-09-23T07:54:23.162Z,21.26
2022-09-23T07:55:23.172Z,21.27
2022-09-23T07:56:23.163Z,21.17
2022-09-23T07:57:23.163Z,21.06
2022-09-23T07:58:23.166Z,21.26
2022-09-23T07:59:23.162Z,21.08
2022-09-23T08:00:23.201Z,21.06
2022-09-23T08:01:23.257Z,21.45
2022-09-23T08:02:23.205Z,21.26
2022-09-23T08:03:23.163Z,21.16
2022-09-23T08:04:23.163Z,21.17
2022-09-23T08:05:23.163Z,21.08
2022-09-23T08:06:23.186Z,21.08
2022-09-23T08:07:23.164Z,21.45
2022-09-23T08:08:23.165Z,21.26
2022-09-23T08:09:23.163Z,21.47
2022-09-23T08:10:23.242Z,21.56
2022-09-23T08:11:23.165Z,21.66
2022-09-23T08:12:23.165Z,21.16
2022-09-23T08:13:23.165Z,21.55
2022-09-23T08:14:23.166Z,21.45
2022-09-23T08:15:23.164Z,21.47
2022-09-23T08:16:23.216Z,21.37
2022-09-23T08:17:23.167Z,21.37
2022-09-23T08:18:23.166Z,21.36
2022-09-23T08:19:23.164Z,21.36
2022-09-23T08:20:23.298Z,21.45
2022-09-23T08:21:23.170Z,21.55
2022-09-23T08:22:23.189Z,21.65
2022-09-23T08:23:23.191Z,21.47
2022-09-23T08:24:23.167Z,21.55
2022-09-23T08:25:23.167Z,21.36
2022-09-23T08:26:23.172Z,21.56
2022-09-23T08:27:23.168Z,21.85
2022-09-23T08:28:23.169Z,21.85
2022-09-23T08:29:23.169Z,21.75
2022-09-23T08:30:23.167Z,21.55
2022-09-23T08:31:23.290Z,21.65
2022-09-23T08:32:23.170Z,21.85
2022-09-23T08:33:23.891Z,21.75
2022-09-23T08:34:23.168Z,21.94
2022-09-23T08:35:23.170Z,21.75
2022-09-23T08:36:23.170Z,21.75
2022-09-23T08:37:23.169Z,21.85
2022-09-23T08:38:23.191Z,21.75
2022-09-23T08:39:23.200Z,21.75
2022-09-23T08:40:23.262Z,21.84
2022-09-23T08:41:23.173Z,21.75
2022-09-23T08:42:23.170Z,21.75
2022-09-23T08:43:23.170Z,21.95
2022-09-23T08:44:23.173Z,21.94
2022-09-23T08:45:23.170Z,21.95
2022-09-23T08:46:23.192Z,21.84
2022-09-23T08:47:23.171Z,21.95
2022-09-23T08:48:23.172Z,23.60
2022-09-23T08:49:23.171Z,22.72
2022-09-23T08:50:23.171Z,22.34
2022-09-23T08:51:23.175Z,22.24
2022-09-23T08:52:23.172Z,22.13
2022-09-23T08:53:23.178Z,22.05
2022-09-23T08:54:23.197Z,22.05
2022-09-23T08:55:23.172Z,22.24
2022-09-23T08:56:23.173Z,22.14
2022-09-23T08:57:23.172Z,22.24
2022-09-23T08:58:25.566Z,22.34
2022-09-23T08:59:23.173Z,22.24
2022-09-23T09:00:23.174Z,22.24
2022-09-23T09:01:23.210Z,22.24
2022-09-23T09:02:23.220Z,22.34
2022-09-23T09:03:23.744Z,22.24
2022-09-23T09:04:23.178Z,22.24
2022-09-23T09:05:23.174Z,22.34
2022-09-23T09:06:23.175Z,22.34
2022-09-23T09:07:38.819Z,22.44
2022-09-23T09:08:23.177Z,22.34
2022-09-23T09:09:23.176Z,22.34
2022-09-23T09:10:23.201Z,22.44
2022-09-23T09:11:23.174Z,22.44
2022-09-23T09:12:23.176Z,22.44
2022-09-23T09:13:23.181Z,22.63
2022-09-23T09:14:23.176Z,22.53
2022-09-23T09:15:24.604Z,22.44
2022-09-23T09:16:36.604Z,22.34
2022-09-23T09:17:23.177Z,22.53
2022-09-23T09:18:23.178Z,22.53
2022-09-23T09:19:23.180Z,22.53
2022-09-23T09:20:23.179Z,22.53
2022-09-23T09:21:23.178Z,22.63
2022-09-23T09:22:23.178Z,22.72
2022-09-23T09:23:23.203Z,22.63
2022-09-23T09:24:23.181Z,22.63
2022-09-23T09:25:23.182Z,22.72
2022-09-23T09:26:23.212Z,22.63
2022-09-23T09:27:23.182Z,22.72
2022-09-23T09:28:23.185Z,22.72
2022-09-23T09:29:34.736Z,22.63
2022-09-23T09:30:23.180Z,22.72
2022-09-23T09:31:23.233Z,22.72
2022-09-23T09:32:23.231Z,22.72
2022-09-23T09:33:23.182Z,22.72
2022-09-23T09:34:23.184Z,22.82
2022-09-23T09:35:23.184Z,22.72
2022-09-23T09:36:23.182Z,22.82
2022-09-23T09:37:23.183Z,22.72
2022-09-23T09:38:23.182Z,23.02
2022-09-23T09:39:26.186Z,22.92
2022-09-23T09:40:23.235Z,22.92
2022-09-23T09:41:23.186Z,22.92
2022-09-23T09:42:23.268Z,23.02
2022-09-23T09:43:23.185Z,22.92
2022-09-23T09:44:23.184Z,22.92
2022-09-23T09:45:23.185Z,23.02
2022-09-23T09:46:23.261Z,23.02
2022-09-23T09:47:23.187Z,23.02
2022-09-23T09:48:23.185Z,23.02
2022-09-23T09:49:23.189Z,23.02
2022-09-23T09:50:23.185Z,23.02
2022-09-23T09:51:23.189Z,23.11
2022-09-23T09:52:23.186Z,23.11
2022-09-23T09:53:23.135Z,23.11
2022-09-23T09:54:23.163Z,23.11
2022-09-23T09:55:23.132Z,23.11
2022-09-23T09:56:23.134Z,23.21
2022-09-23T09:57:23.142Z,23.41
2022-09-23T09:58:23.167Z,23.31
2022-09-23T09:59:23.142Z,23.21
2022-09-23T10:00:23.133Z,23.31
2022-09-23T10:01:23.313Z,23.41
2022-09-23T10:02:23.131Z,23.50
2022-09-23T10:03:23.133Z,23.21
2022-09-23T10:04:23.191Z,23.21
2022-09-23T10:05:23.133Z,23.41
2022-09-23T10:06:23.130Z,23.60
2022-09-23T10:07:23.134Z,23.60
2022-09-23T10:08:23.134Z,23.50
2022-09-23T10:09:23.131Z,23.60
2022-09-23T10:10:32.412Z,23.41
2022-09-23T10:11:23.131Z,23.69
2022-09-23T10:12:23.130Z,23.60
2022-09-23T10:13:23.132Z,23.49
2022-09-23T10:14:23.155Z,23.50
2022-09-23T10:15:23.131Z,23.79
2022-09-23T10:16:23.176Z,23.60
2022-09-23T10:17:23.131Z,23.69
2022-09-23T10:18:23.130Z,23.79
2022-09-23T10:19:23.133Z,23.49
2022-09-23T10:20:23.130Z,23.79
2022-09-23T10:21:27.763Z,23.89
2022-09-23T10:22:23.131Z,23.89
2022-09-23T10:23:23.133Z,23.88
2022-09-23T10:24:23.133Z,23.89
2022-09-23T10:25:23.133Z,23.69
2022-09-23T10:26:23.132Z,23.88
2022-09-23T10:27:23.134Z,23.89
2022-09-23T10:28:23.135Z,23.99
2022-09-23T10:29:23.136Z,23.89
2022-09-23T10:30:23.165Z,23.88
2022-09-23T10:31:23.135Z,23.89
2022-09-23T10:32:23.135Z,23.79
2022-09-23T10:33:23.137Z,24.27
2022-09-23T10:34:23.135Z,23.59
2022-09-23T10:35:23.139Z,24.27
2022-09-23T10:36:23.136Z,23.97
2022-09-23T10:37:23.238Z,23.99
2022-09-23T10:38:23.137Z,23.97
2022-09-23T10:39:23.139Z,24.08
2022-09-23T10:40:23.184Z,24.07
2022-09-23T10:41:23.142Z,23.99
2022-09-23T10:42:23.139Z,23.89
2022-09-23T10:43:23.143Z,24.07
2022-09-23T10:44:23.143Z,23.88
2022-09-23T10:45:23.144Z,24.27
2022-09-23T10:46:23.258Z,24.27
2022-09-23T10:47:23.144Z,24.27
2022-09-23T10:48:23.147Z,24.28
2022-09-23T10:49:23.146Z,24.37
2022-09-23T10:50:23.147Z,24.07
2022-09-23T10:51:26.089Z,24.07
2022-09-23T10:52:23.146Z,24.27
2022-09-23T10:53:23.148Z,23.97
2022-09-23T10:54:23.147Z,23.97
2022-09-23T10:55:23.152Z,24.27
2022-09-23T10:56:23.150Z,24.07
2022-09-23T10:57:23.150Z,24.17
2022-09-23T10:58:23.149Z,24.18
2022-09-23T10:59:23.152Z,23.97
2022-09-23T11:00:23.334Z,24.17
2022-09-23T11:01:23.188Z,24.07
2022-09-23T11:02:23.180Z,24.07
2022-09-23T11:03:23.156Z,24.17
2022-09-23T11:04:23.197Z,24.37
2022-09-23T11:05:23.156Z,24.37
2022-09-23T11:06:23.156Z,24.37
2022-09-23T11:07:23.158Z,24.46
2022-09-23T11:08:23.159Z,24.07
2022-09-23T11:09:23.158Z,24.27
2022-09-23T11:10:42.243Z,24.46
2022-09-23T11:11:23.159Z,24.46
2022-09-23T11:12:23.164Z,23.97
2022-09-23T11:13:23.162Z,24.46
2022-09-23T11:14:23.160Z,24.07
2022-09-23T11:15:23.161Z,24.37
2022-09-23T11:16:23.214Z,23.97
2022-09-23T11:17:23.164Z,24.07
2022-09-23T11:18:23.187Z,24.07
2022-09-23T11:19:23.167Z,24.46
2022-09-23T11:20:23.199Z,24.46
2022-09-23T11:21:23.164Z,24.46
2022-09-23T11:22:23.166Z,24.46
2022-09-23T11:23:23.176Z,24.46
2022-09-23T11:24:23.165Z,24.07
2022-09-23T11:25:23.167Z,24.46
2022-09-23T11:26:23.165Z,24.46
2022-09-23T11:27:23.169Z,24.27
2022-09-23T11:28:23.168Z,24.46
2022-09-23T11:29:23.169Z,24.27
2022-09-23T11:30:23.194Z,24.37
2022-09-23T11:31:23.255Z,24.37
2022-09-23T11:32:23.168Z,24.37
2022-09-23T11:33:23.171Z,24.37
2022-09-23T11:34:23.193Z,24.17
2022-09-23T11:35:23.171Z,24.27
2022-09-23T11:36:23.171Z,24.27
2022-09-23T11:37:23.174Z,24.37
2022-09-23T11:38:23.171Z,23.97
2022-09-23T11:39:23.172Z,24.46
2022-09-23T11:40:23.264Z,24.37
2022-09-23T11:41:23.174Z,24.17
2022-09-23T11:42:23.174Z,23.79
2022-09-23T11:43:23.173Z,24.07
2022-09-23T11:44:23.173Z,24.46
2022-09-23T11:45:23.176Z,24.27
2022-09-23T11:46:23.243Z,24.17
2022-09-23T11:47:23.178Z,24.17
2022-09-23T11:48:23.177Z,24.07
2022-09-23T11:49:23.177Z,24.17
2022-09-23T11:50:23.233Z,24.27
2022-09-23T11:51:23.178Z,24.27
2022-09-23T11:52:23.176Z,24.17
2022-09-23T11:53:23.178Z,24.17
2022-09-23T11:54:23.178Z,24.37
2022-09-23T11:55:23.505Z,24.17
2022-09-23T11:56:33.527Z,24.46
2022-09-23T11:57:23.180Z,24.46
2022-09-23T11:58:25.914Z,24.37
2022-09-23T11:59:34.409Z,24.37
2022-09-23T12:00:23.179Z,24.46
2022-09-23T12:01:34.312Z,24.46
2022-09-23T12:02:28.228Z,24.56
2022-09-23T12:03:32.031Z,24.46
2022-09-23T12:04:23.671Z,24.46
2022-09-23T12:05:23.299Z,24.56
2022-09-23T12:06:23.202Z,24.66
2022-09-23T12:07:23.181Z,24.56
2022-09-23T12:08:23.181Z,24.46
2022-09-23T12:09:40.949Z,24.66
2022-09-23T12:10:23.181Z,24.76
2022-09-23T12:11:23.183Z,24.76
2022-09-23T12:12:26.997Z,24.66
2022-09-23T12:13:23.187Z,24.76
2022-09-23T12:14:23.182Z,24.76
2022-09-23T12:15:23.185Z,24.56
2022-09-23T12:16:23.260Z,24.56
2022-09-23T12:17:23.185Z,24.56
2022-09-23T12:18:23.514Z,24.56
2022-09-23T12:19:23.185Z,24.66
2022-09-23T12:20:23.185Z,24.66
2022-09-23T12:21:48.755Z,24.66
2022-09-23T12:22:23.212Z,24.76
2022-09-23T12:23:23.185Z,24.56
2022-09-23T12:24:23.185Z,24.56
2022-09-23T12:25:23.189Z,24.56
2022-09-23T12:26:23.186Z,24.56
2022-09-23T12:27:23.188Z,24.56
2022-09-23T12:28:23.187Z,24.56
2022-09-23T12:29:23.226Z,24.56
2022-09-23T12:30:23.236Z,24.46
2022-09-23T12:31:23.190Z,24.56
2022-09-23T12:32:23.188Z,24.56
2022-09-23T12:33:23.189Z,24.37
2022-09-23T12:34:23.189Z,24.46
2022-09-23T12:35:23.189Z,24.27
2022-09-23T12:36:23.189Z,24.27
2022-09-23T12:37:23.190Z,24.56
2022-09-23T12:38:23.213Z,24.56
2022-09-23T12:39:23.190Z,24.56
2022-09-23T12:40:23.244Z,24.27
2022-09-23T12:41:23.194Z,24.66
2022-09-23T12:42:24.331Z,24.66
2022-09-23T12:43:23.191Z,24.56
2022-09-23T12:44:23.191Z,24.46
2022-09-23T12:45:23.192Z,24.76
2022-09-23T12:46:23.226Z,24.85
2022-09-23T12:47:23.192Z,24.85
2022-09-23T12:48:23.193Z,24.76
2022-09-23T12:49:23.193Z,24.76
2022-09-23T12:50:24.482Z,24.85
2022-09-23T12:51:23.193Z,24.85
2022-09-23T12:52:23.193Z,24.85